createdAt,value
2018-07-27T00:00:58.061Z,101628.88
2018-07-27T00:04:02.423Z,101624.52
2018-07-27T00:07:06.884Z,101621.81
2018-07-27T00:10:16.416Z,101624.53
2018-07-27T00:13:20.759Z,101625.93
2018-07-27T00:16:24.935Z,101629.45
2018-07-27T00:19:29.271Z,101627.73
2018-07-27T00:22:33.584Z,101629.98
2018-07-27T00:25:38.044Z,101636.23
2018-07-27T00:28:42.394Z,101638.96
2018-07-27T00:31:46.917Z,101633.74
2018-07-27T00:34:51.443Z,101634.20
2018-07-27T00:37:55.907Z,101638.62
2018-07-27T00:41:00.984Z,101636.90
2018-07-27T00:44:05.547Z,101628.67
2018-07-27T00:47:09.992Z,101635.58
2018-07-27T00:50:14.471Z,101633.91
2018-07-27T00:53:19.004Z,101631.65
2018-07-27T00:56:23.444Z,101631.80
2018-07-27T00:59:27.952Z,101630.16
2018-07-27T01:02:32.273Z,101624.88
2018-07-27T01:05:37.221Z,101628.83
2018-07-27T01:08:41.737Z,101627.09
2018-07-27T01:11:46.348Z,101623.59
2018-07-27T01:14:50.655Z,101623.69
2018-07-27T01:17:55.265Z,101621.03
2018-07-27T01:20:59.574Z,101620.78
2018-07-27T01:24:04.114Z,101618.58
2018-07-27T01:27:08.483Z,101614.13
2018-07-27T01:30:12.911Z,101610.69
2018-07-27T01:33:17.407Z,101603.69
2018-07-27T01:36:22.002Z,101605.02
2018-07-27T01:39:26.447Z,101606.45
2018-07-27T01:42:31.142Z,101598.07
2018-07-27T01:45:35.641Z,101602.97
2018-07-27T01:48:40.044Z,101602.09
2018-07-27T01:51:44.567Z,101603.50
2018-07-27T01:54:49.098Z,101602.69
2018-07-27T01:57:53.520Z,101604.07
2018-07-27T02:00:57.945Z,101601.95
2018-07-27T02:04:02.378Z,101598.51
2018-07-27T02:07:07.237Z,101604.72
2018-07-27T02:10:11.902Z,101603.00
2018-07-27T02:13:16.253Z,101599.06
2018-07-27T02:16:21.465Z,101592.39
2018-07-27T02:19:26.021Z,101588.77
2018-07-27T02:22:30.585Z,101591.00
2018-07-27T02:25:35.310Z,101585.17
2018-07-27T02:28:39.722Z,101582.92
2018-07-27T02:31:44.478Z,101584.30
2018-07-27T02:34:48.761Z,101583.47
2018-07-27T02:37:53.677Z,101580.88
2018-07-27T02:40:59.932Z,101579.50
2018-07-27T02:44:04.353Z,101573.36
2018-07-27T02:47:09.985Z,101572.88
2018-07-27T02:50:14.399Z,101578.23
2018-07-27T02:53:18.852Z,101575.64
2018-07-27T02:56:23.384Z,101569.61
2018-07-27T02:59:27.945Z,101572.33
2018-07-27T03:02:32.390Z,101571.88
2018-07-27T03:05:36.886Z,101566.77
2018-07-27T03:08:41.279Z,101577.11
2018-07-27T03:11:45.592Z,101575.91
2018-07-27T03:14:50.039Z,101572.91
2018-07-27T03:17:54.445Z,101570.84
2018-07-27T03:20:59.133Z,101572.22
2018-07-27T03:24:03.748Z,101569.53
2018-07-27T03:27:08.431Z,101572.06
2018-07-27T03:30:12.822Z,101575.97
2018-07-27T03:33:17.465Z,101568.38
2018-07-27T03:36:21.841Z,101574.08
2018-07-27T03:39:26.391Z,101569.75
2018-07-27T03:42:30.892Z,101570.17
2018-07-27T03:45:35.545Z,101571.48
2018-07-27T03:48:40.254Z,101565.39
2018-07-27T03:51:44.941Z,101570.62
2018-07-27T03:54:49.410Z,101565.72
2018-07-27T03:57:53.896Z,101569.19
2018-07-27T04:00:58.589Z,101574.87
2018-07-27T04:04:03.011Z,101573.72
2018-07-27T04:07:07.625Z,101574.52
2018-07-27T04:10:12.057Z,101572.73
2018-07-27T04:13:16.481Z,101566.52
2018-07-27T04:16:21.224Z,101568.71
2018-07-27T04:19:25.578Z,101571.75
2018-07-27T04:22:30.123Z,101572.08
2018-07-27T04:25:34.599Z,101568.95
2018-07-27T04:28:39.134Z,101570.71
2018-07-27T04:31:43.635Z,101571.06
2018-07-27T04:34:48.282Z,101574.81
2018-07-27T04:37:53.836Z,101572.06
2018-07-27T04:40:59.217Z,101576.82
2018-07-27T04:44:04.185Z,101576.41
2018-07-27T04:47:08.612Z,101585.87
2018-07-27T04:50:12.893Z,101585.39
2018-07-27T04:53:17.218Z,101582.21
2018-07-27T04:56:21.574Z,101580.35
2018-07-27T04:59:25.939Z,101579.81
2018-07-27T05:02:30.336Z,101578.41
2018-07-27T05:05:35.181Z,101579.98
2018-07-27T05:08:44.864Z,101583.89
2018-07-27T05:11:49.199Z,101585.15
2018-07-27T05:14:53.672Z,101589.06
2018-07-27T05:17:58.065Z,101584.94
2018-07-27T05:21:02.395Z,101594.50
2018-07-27T05:24:07.301Z,101586.72
2018-07-27T05:27:11.789Z,101593.64
2018-07-27T05:30:16.169Z,101589.98
2018-07-27T05:33:20.493Z,101600.55
2018-07-27T05:36:24.891Z,101599.09
2018-07-27T05:39:29.327Z,101595.87
2018-07-27T05:42:33.600Z,101592.83
2018-07-27T05:45:37.904Z,101595.67
2018-07-27T05:48:42.321Z,101599.96
2018-07-27T05:51:46.610Z,101606.14
2018-07-27T05:54:50.946Z,101602.93
2018-07-27T05:57:55.265Z,101598.39
2018-07-27T06:00:59.640Z,101598.72
2018-07-27T06:04:04.014Z,101599.45
2018-07-27T06:07:08.319Z,101603.81
2018-07-27T06:10:12.620Z,101596.07
2018-07-27T06:13:17.627Z,101597.78
2018-07-27T06:16:22.082Z,101597.88
2018-07-27T06:19:27.819Z,101590.67
2018-07-27T06:22:32.101Z,101598.06
2018-07-27T06:25:36.498Z,101591.86
2018-07-27T06:28:40.795Z,101602.05
2018-07-27T06:31:45.079Z,101601.07
2018-07-27T06:34:49.545Z,101603.18
2018-07-27T06:37:53.891Z,101598.60
2018-07-27T06:40:58.350Z,101605.04
2018-07-27T06:44:02.965Z,101602.20
2018-07-27T06:47:07.420Z,101599.55
2018-07-27T06:50:11.728Z,101600.67
2018-07-27T06:53:16.061Z,101602.55
2018-07-27T06:56:20.458Z,101604.75
2018-07-27T06:59:24.700Z,101605.06
2018-07-27T07:02:29.120Z,101601.33
2018-07-27T07:05:33.492Z,101609.77
2018-07-27T07:08:37.806Z,101604.54
2018-07-27T07:11:42.186Z,101599.97
2018-07-27T07:14:46.502Z,101602.35
2018-07-27T07:17:51.011Z,101598.89
2018-07-27T07:20:55.703Z,101591.56
2018-07-27T07:24:00.538Z,101588.66
2018-07-27T07:27:04.973Z,101599.42
2018-07-27T07:30:10.133Z,101599.48
2018-07-27T07:33:14.650Z,101596.54
2018-07-27T07:36:19.167Z,101591.66
2018-07-27T07:39:23.526Z,101596.33
2018-07-27T07:42:28.276Z,101588.41
2018-07-27T07:58:32.925Z,101595.09
2018-07-27T08:01:37.627Z,101598.86
2018-07-27T08:04:43.038Z,101593.44
2018-07-27T08:07:47.345Z,101591.71
2018-07-27T08:10:51.662Z,101579.63
2018-07-27T08:13:55.972Z,101586.61
2018-07-27T08:17:00.355Z,101593.64
2018-07-27T08:20:06.089Z,101596.90
2018-07-27T08:23:10.785Z,101578.77
2018-07-27T08:26:54.932Z,101583.86
2018-07-27T08:29:59.180Z,101580.77
2018-07-27T08:33:03.567Z,101578.89
2018-07-27T08:36:07.862Z,101576.95
2018-07-27T08:39:14.477Z,101573.95
2018-07-27T08:42:18.789Z,101579.81
2018-07-27T08:45:23.041Z,101577.51
2018-07-27T08:48:27.365Z,101580.50
2018-07-27T08:51:32.623Z,101582.41
2018-07-27T08:54:37.027Z,101580.45
2018-07-27T08:57:41.389Z,101586.28
2018-07-27T09:00:54.484Z,101589.37
2018-07-27T09:04:07.263Z,101588.88
2018-07-27T09:07:11.564Z,101584.38
2018-07-27T09:10:16.028Z,101587.66
2018-07-27T09:13:20.342Z,101584.44
2018-07-27T09:16:24.895Z,101583.16
2018-07-27T09:19:29.179Z,101575.38
2018-07-27T09:22:33.571Z,101578.39
2018-07-27T09:25:37.907Z,101572.69
2018-07-27T09:28:42.248Z,101574.73
2018-07-27T09:31:46.612Z,101567.99
2018-07-27T09:34:51.095Z,101574.70
2018-07-27T09:37:55.477Z,101568.43
2018-07-27T09:40:59.945Z,101571.88
2018-07-27T09:44:04.318Z,101575.53
2018-07-27T09:47:08.765Z,101580.51
2018-07-27T09:50:13.045Z,101587.48
2018-07-27T09:53:17.390Z,101578.81
2018-07-27T09:56:21.968Z,101586.66
2018-07-27T09:59:26.333Z,101584.01
2018-07-27T10:02:30.749Z,101579.37
2018-07-27T10:05:35.062Z,101577.69
2018-07-27T10:08:39.512Z,101579.52
2018-07-27T10:11:43.809Z,101573.78
2018-07-27T10:14:49.282Z,101567.70
2018-07-27T10:17:53.604Z,101565.91
2018-07-27T10:20:57.907Z,101562.17
2018-07-27T10:24:02.229Z,101570.38
2018-07-27T10:27:06.664Z,101570.94
2018-07-27T10:30:11.618Z,101564.80
2018-07-27T10:33:16.213Z,101560.84
2018-07-27T10:36:20.430Z,101551.11
2018-07-27T10:39:25.116Z,101557.91
2018-07-27T10:42:29.428Z,101550.77
2018-07-27T10:45:33.781Z,101554.77
2018-07-27T10:48:39.179Z,101556.63
2018-07-27T10:51:43.721Z,101551.80
2018-07-27T10:54:48.228Z,101552.62
2018-07-27T10:57:52.610Z,101552.80
2018-07-27T11:00:56.964Z,101551.16
2018-07-27T11:04:01.496Z,101547.23
2018-07-27T11:07:05.788Z,101546.06
2018-07-27T11:10:12.061Z,101543.15
2018-07-27T11:13:16.505Z,101539.05
2018-07-27T11:16:20.966Z,101535.66
2018-07-27T11:19:25.303Z,101535.70
2018-07-27T11:22:29.704Z,101537.12
2018-07-27T11:25:35.013Z,101545.69
2018-07-27T11:28:39.335Z,101537.63
2018-07-27T11:31:43.721Z,101530.23
2018-07-27T11:34:48.091Z,101527.44
2018-07-27T11:37:52.591Z,101534.06
2018-07-27T11:40:56.986Z,101527.34
2018-07-27T11:44:01.442Z,101532.42
2018-07-27T11:47:06.106Z,101527.45
2018-07-27T11:50:10.431Z,101521.44
2018-07-27T11:53:14.754Z,101528.58
2018-07-27T11:56:19.132Z,101518.02
2018-07-27T11:59:23.522Z,101511.81
2018-07-27T12:02:27.931Z,101513.38
2018-07-27T12:05:32.361Z,101514.36
2018-07-27T12:08:36.830Z,101505.63
2018-07-27T12:11:41.271Z,101504.28
2018-07-27T12:14:45.796Z,101507.11
2018-07-27T12:17:50.033Z,101501.15
2018-07-27T12:20:54.664Z,101499.58
2018-07-27T12:23:58.969Z,101502.84
2018-07-27T12:27:03.348Z,101491.06
2018-07-27T12:30:07.772Z,101492.30
2018-07-27T12:33:13.552Z,101486.16
2018-07-27T12:36:17.891Z,101485.34
2018-07-27T12:39:22.235Z,101472.19
2018-07-27T12:42:26.555Z,101477.61
2018-07-27T12:45:30.995Z,101472.46
2018-07-27T12:48:35.826Z,101460.37
2018-07-27T12:51:40.242Z,101456.75
2018-07-27T12:54:44.547Z,101457.43
2018-07-27T12:57:48.873Z,101452.09
2018-07-27T13:00:53.786Z,101460.41
2018-07-27T13:03:58.594Z,101443.91
2018-07-27T13:07:02.971Z,101445.98
2018-07-27T13:10:08.049Z,101444.09
2018-07-27T13:13:12.444Z,101439.89
2018-07-27T13:16:17.026Z,101439.72
2018-07-27T13:19:21.362Z,101438.01
2018-07-27T13:22:26.201Z,101428.44
2018-07-27T13:25:30.752Z,101423.32
2018-07-27T13:28:36.174Z,101422.04
2018-07-27T13:31:56.360Z,101418.70
2018-07-27T13:35:01.698Z,101424.82
2018-07-27T13:38:06.124Z,101419.60
2018-07-27T13:41:10.570Z,101410.80
2018-07-27T13:44:21.607Z,101400.09
2018-07-27T13:47:26.764Z,101402.08
2018-07-27T13:50:31.107Z,101395.45
2018-07-27T13:53:35.428Z,101392.69
2018-07-27T13:56:39.847Z,101383.14
2018-07-27T13:59:44.749Z,101388.18
2018-07-27T14:02:49.193Z,101386.03
2018-07-27T14:05:53.573Z,101380.84
2018-07-27T14:08:58.045Z,101381.23
2018-07-27T14:12:02.524Z,101378.17
2018-07-27T14:15:06.931Z,101386.10
2018-07-27T14:18:11.273Z,101369.60
2018-07-27T14:21:15.625Z,101363.66
2018-07-27T14:24:20.488Z,101365.02
2018-07-27T14:27:24.905Z,101364.38
2018-07-27T14:30:29.236Z,101361.88
2018-07-27T14:33:33.608Z,101351.41
2018-07-27T14:36:38.048Z,101356.14
2018-07-27T14:39:42.380Z,101359.06
2018-07-27T14:42:46.758Z,101360.85
2018-07-27T14:45:50.859Z,101358.59
2018-07-27T14:48:57.057Z,101355.34
2018-07-27T14:52:01.474Z,101352.20
2018-07-27T14:55:05.842Z,101351.42
2018-07-27T14:58:10.214Z,101361.11
2018-07-27T15:01:14.676Z,101351.72
2018-07-27T15:04:19.331Z,101345.98
2018-07-27T15:07:23.637Z,101346.23
2018-07-27T15:10:27.976Z,101345.91
2018-07-27T15:13:32.333Z,101346.21
2018-07-27T15:16:36.739Z,101331.50
2018-07-27T15:19:41.074Z,101336.14
2018-07-27T15:22:45.468Z,101329.66
2018-07-27T15:25:49.775Z,101324.70
2018-07-27T15:28:54.054Z,101329.71
2018-07-27T15:31:58.742Z,101328.33
2018-07-27T15:35:02.783Z,101331.98
2018-07-27T15:38:07.390Z,101339.25
2018-07-27T15:41:11.817Z,101322.46
2018-07-27T15:44:16.949Z,101333.58
2018-07-27T15:47:21.295Z,101328.09
2018-07-27T15:50:25.696Z,101336.97
2018-07-27T15:53:30.122Z,101322.78
2018-07-27T15:56:34.501Z,101314.10
2018-07-27T15:59:38.804Z,101314.69
2018-07-27T16:02:43.074Z,101318.52
2018-07-27T16:05:47.403Z,101314.31
2018-07-27T16:08:51.716Z,101307.03
2018-07-27T16:11:56.128Z,101298.69
2018-07-27T16:15:00.458Z,101294.54
2018-07-27T16:18:04.817Z,101294.29
2018-07-27T16:21:09.197Z,101295.90
2018-07-27T16:24:13.541Z,101301.64
2018-07-27T16:27:17.935Z,101294.84
2018-07-27T16:30:22.273Z,101305.13
2018-07-27T16:33:26.626Z,101300.80
2018-07-27T16:36:31.004Z,101307.42
2018-07-27T16:39:35.349Z,101291.77
2018-07-27T16:42:39.673Z,101293.80
2018-07-27T16:45:44.013Z,101284.87
2018-07-27T16:48:48.385Z,101292.85
2018-07-27T16:51:52.708Z,101290.73
2018-07-27T16:54:56.989Z,101288.80
2018-07-27T16:58:01.352Z,101286.29
2018-07-27T17:01:05.745Z,101294.57
2018-07-27T17:04:10.097Z,101284.62
2018-07-27T17:07:14.379Z,101280.75
2018-07-27T17:10:18.733Z,101276.55
2018-07-27T17:13:23.111Z,101273.25
2018-07-27T17:16:27.377Z,101280.36
2018-07-27T17:19:31.945Z,101266.84
2018-07-27T17:22:36.291Z,101264.36
2018-07-27T17:25:40.697Z,101271.76
2018-07-27T17:28:45.015Z,101271.72
2018-07-27T17:31:49.742Z,101271.36
2018-07-27T17:34:57.733Z,101269.16
2018-07-27T17:38:03.521Z,101268.58
2018-07-27T17:41:08.947Z,101261.48
2018-07-27T17:44:15.403Z,101266.44
2018-07-27T17:47:21.379Z,101272.64
2018-07-27T17:50:27.817Z,101269.14
2018-07-27T17:53:32.819Z,101271.81
2018-07-27T17:56:38.662Z,101265.67
2018-07-27T17:59:43.912Z,101263.42
2018-07-27T18:02:48.829Z,101263.30
2018-07-27T18:05:53.219Z,101268.17
2018-07-27T18:08:57.493Z,101261.89
2018-07-27T18:12:01.855Z,101263.17
2018-07-27T18:15:06.389Z,101269.84
2018-07-27T18:18:10.703Z,101265.84
2018-07-27T18:21:15.046Z,101262.52
2018-07-27T18:24:19.374Z,101267.64
2018-07-27T18:27:23.682Z,101261.50
2018-07-27T18:30:28.191Z,101274.58
2018-07-27T18:33:32.512Z,101272.42
2018-07-27T18:36:37.225Z,101276.27
2018-07-27T18:39:41.630Z,101273.92
2018-07-27T18:42:45.910Z,101275.70
2018-07-27T18:45:50.245Z,101276.09
2018-07-27T18:48:55.085Z,101277.84
2018-07-27T18:51:59.367Z,101282.90
2018-07-27T18:55:03.761Z,101281.39
2018-07-27T18:58:08.074Z,101279.23
2018-07-27T19:01:12.403Z,101283.98
2018-07-27T19:04:16.768Z,101276.72
2018-07-27T19:07:21.240Z,101280.28
2018-07-27T19:10:25.520Z,101275.13
2018-07-27T19:13:30.039Z,101281.39
2018-07-27T19:16:34.493Z,101273.38
2018-07-27T19:19:38.904Z,101278.62
2018-07-27T19:22:43.307Z,101270.00
2018-07-27T19:25:47.726Z,101269.89
2018-07-27T19:28:52.055Z,101269.14
2018-07-27T19:31:56.437Z,101275.09
2018-07-27T19:35:00.794Z,101278.56
2018-07-27T19:38:05.214Z,101276.95
2018-07-27T19:41:09.577Z,101271.32
2018-07-27T19:44:13.904Z,101273.13
2018-07-27T19:47:18.244Z,101273.53
2018-07-27T19:50:22.631Z,101277.44
2018-07-27T19:53:27.278Z,101277.63
2018-07-27T19:56:31.656Z,101277.89
2018-07-27T19:59:36.085Z,101279.00
2018-07-27T20:02:43.505Z,101276.66
2018-07-27T20:05:50.593Z,101273.14
2018-07-27T20:08:58.678Z,101277.17
2018-07-27T20:12:06.766Z,101272.10
2018-07-27T20:15:14.085Z,101268.15
2018-07-27T20:18:21.271Z,101266.46
2018-07-27T20:21:28.819Z,101266.17
2018-07-27T20:24:35.668Z,101254.72
2018-07-27T20:27:43.611Z,101241.94
2018-07-27T20:30:51.323Z,101245.05
2018-07-27T20:33:59.008Z,101251.80
2018-07-27T20:37:07.335Z,101244.94
2018-07-27T20:40:14.728Z,101248.92
2018-07-27T20:43:22.333Z,101246.58
2018-07-27T20:46:30.329Z,101240.64
2018-07-27T20:49:38.104Z,101232.02
2018-07-27T20:52:46.358Z,101230.66
2018-07-27T20:55:53.767Z,101233.34
2018-07-27T20:59:00.744Z,101230.79
2018-07-27T21:02:08.364Z,101232.81
2018-07-27T21:05:16.189Z,101216.98
2018-07-27T21:08:23.599Z,101218.84
2018-07-27T21:11:31.196Z,101213.70
2018-07-27T21:14:38.864Z,101202.78
2018-07-27T21:17:46.593Z,101208.66
2018-07-27T21:20:53.585Z,101206.09
2018-07-27T21:24:00.486Z,101205.60
2018-07-27T21:27:07.963Z,101195.28
2018-07-27T21:30:16.259Z,101200.45
2018-07-27T21:33:24.208Z,101188.48
2018-07-27T21:36:31.989Z,101187.62
2018-07-27T21:39:39.202Z,101187.75
2018-07-27T21:42:47.028Z,101184.23
2018-07-27T21:45:54.790Z,101183.64
2018-07-27T21:49:02.392Z,101182.37
2018-07-27T21:52:09.876Z,101176.58
2018-07-27T21:55:17.299Z,101177.13
2018-07-27T21:58:25.012Z,101173.38
2018-07-27T22:01:32.425Z,101172.25
2018-07-27T22:04:39.936Z,101180.67
2018-07-27T22:07:47.452Z,101174.04
2018-07-27T22:10:54.173Z,101174.27
2018-07-27T22:14:00.896Z,101173.16
2018-07-27T22:17:09.297Z,101173.52
2018-07-27T22:20:16.875Z,101172.91
2018-07-27T22:23:24.411Z,101187.73
2018-07-27T22:26:31.101Z,101185.17
2018-07-27T22:29:38.097Z,101176.97
2018-07-27T22:32:45.054Z,101174.78
2018-07-27T22:35:52.380Z,101176.57
2018-07-27T22:38:59.536Z,101178.76
2018-07-27T22:42:06.726Z,101176.23
2018-07-27T22:45:13.549Z,101181.97
2018-07-27T22:48:21.255Z,101184.24
2018-07-27T22:51:28.289Z,101176.14
2018-07-27T22:54:35.784Z,101174.59
2018-07-27T22:57:44.012Z,101169.72
2018-07-27T23:00:51.409Z,101175.97
2018-07-27T23:03:55.984Z,101169.61
2018-07-27T23:07:00.402Z,101168.60
2018-07-27T23:10:05.573Z,101166.44
2018-07-27T23:13:09.934Z,101164.37
2018-07-27T23:16:14.283Z,101166.55
2018-07-27T23:19:18.689Z,101170.73
2018-07-27T23:22:22.981Z,101162.98
2018-07-27T23:25:27.286Z,101153.33
2018-07-27T23:28:31.592Z,101150.95
2018-07-27T23:31:35.994Z,101155.41
2018-07-27T23:34:40.283Z,101154.02
2018-07-27T23:37:44.561Z,101152.41
2018-07-27T23:40:48.859Z,101152.47
2018-07-27T23:43:53.224Z,101153.16
2018-07-27T23:46:57.568Z,101154.97
2018-07-27T23:50:02.775Z,101142.25
2018-07-27T23:53:07.442Z,101138.79
2018-07-27T23:56:11.765Z,101138.19
2018-07-27T23:59:16.196Z,101137.95
